Time;durP1;ratioP1;P1;durP2;ratioP2;P2;SDS_P1;SDS_P2;PMS_P1;PMS_P2;Temp;Humidity;BMP_temperature;BMP_pressure;BME280_temperature;BME280_humidity;BME280_pressure;Samples;Min_cycle;Max_cycle;Signal;HPM_P1;HPM_P2
2021/06/02 00:00:27;;;;;;;7.22;4.55;;;;;;;19.92;40.06;101410.47;4948895;28;119468;-69
2021/06/02 00:02:55;;;;;;;5.45;4.10;;;;;;;19.86;40.10;101406.41;4950095;28;118886;-69
2021/06/02 00:05:23;;;;;;;6.15;4.65;;;;;;;19.80;40.18;101402.34;4949615;28;124581;-69
2021/06/02 00:07:50;;;;;;;6.85;4.53;;;;;;;19.76;40.26;101405.38;4951164;28;123667;-69
2021/06/02 00:10:20;;;;;;;7.13;4.82;;;;;;;19.70;40.29;101400.44;4951169;28;119441;-69
2021/06/02 00:12:47;;;;;;;6.43;4.20;;;;;;;19.67;40.29;101403.38;4948681;28;119273;-69
2021/06/02 00:15:15;;;;;;;4.10;3.70;;;;;;;19.63;40.29;101406.28;4948008;28;124344;-69
2021/06/02 00:17:42;;;;;;;6.22;4.47;;;;;;;19.60;40.47;101403.78;4950480;28;123713;-69
2021/06/02 00:20:10;;;;;;;8.88;4.57;;;;;;;19.57;40.84;101401.34;4941348;28;119360;-69
2021/06/02 00:22:38;;;;;;;6.25;4.60;;;;;;;19.55;40.84;101408.69;4950026;28;118997;-69
2021/06/02 00:25:07;;;;;;;6.82;4.47;;;;;;;19.54;40.64;101401.56;4942969;28;124075;-69
2021/06/02 00:27:35;;;;;;;6.93;4.72;;;;;;;19.51;40.86;101401.78;4940947;28;123596;-68
2021/06/02 00:30:06;;;;;;;8.77;4.32;;;;;;;19.49;41.12;101398.38;4948569;28;119817;-67
2021/06/02 00:32:34;;;;;;;5.60;4.63;;;;;;;19.48;41.10;101393.09;4949100;28;118906;-68
2021/06/02 00:35:04;;;;;;;6.13;5.05;;;;;;;19.43;41.32;101399.69;4950095;28;124428;-68
2021/06/02 00:37:32;;;;;;;7.68;5.15;;;;;;;19.40;41.25;101393.66;4949873;28;123761;-68
2021/06/02 00:39:59;;;;;;;7.18;4.70;;;;;;;19.36;41.16;101386.81;4959060;23;120071;-65
2021/06/02 00:42:31;;;;;;;7.72;5.20;;;;;;;19.33;41.51;101395.13;4949395;28;120244;-65
2021/06/02 00:44:59;;;;;;;6.50;5.00;;;;;;;19.30;41.36;101395.31;4949713;28;122972;-65
2021/06/02 00:47:27;;;;;;;7.20;5.35;;;;;;;19.25;41.56;101395.69;4949448;28;124108;-65
2021/06/02 00:49:54;;;;;;;7.25;5.13;;;;;;;19.22;41.26;101387.81;4948102;28;120129;-65
2021/06/02 00:52:21;;;;;;;9.07;5.50;;;;;;;19.17;41.61;101393.53;4948343;28;119060;-65
2021/06/02 00:54:48;;;;;;;7.82;5.18;;;;;;;19.12;41.56;101384.97;4950240;28;123207;-66
2021/06/02 00:57:18;;;;;;;8.18;5.50;;;;;;;19.08;41.84;101388.84;4933866;28;124366;-65
2021/06/02 01:00:23;;;;;;;7.10;5.53;;;;;;;19.04;42.17;101395.38;4950642;28;119683;-65
2021/06/02 01:02:52;;;;;;;7.27;5.47;;;;;;;18.97;42.25;101386.06;4919010;28;119274;-65
2021/06/02 01:05:23;;;;;;;7.90;5.95;;;;;;;18.95;42.31;101387.97;4926093;28;124430;-66
2021/06/02 01:07:53;;;;;;;7.20;5.80;;;;;;;18.91;42.52;101386.50;4937625;28;123625;-65
2021/06/02 01:10:21;;;;;;;8.40;5.95;;;;;;;18.88;42.56;101387.56;4939288;28;119785;-65
2021/06/02 01:12:50;;;;;;;8.15;5.82;;;;;;;18.84;42.82;101386.94;4947687;28;119228;-65
2021/06/02 01:15:19;;;;;;;8.13;5.25;;;;;;;18.83;42.87;101387.88;4948153;28;124678;-66
2021/06/02 01:17:47;;;;;;;8.65;5.95;;;;;;;18.80;42.69;101388.13;4944886;28;124254;-66
2021/06/02 01:20:16;;;;;;;9.57;5.80;;;;;;;18.77;42.87;101390.13;4942175;28;119604;-65
2021/06/02 01:22:43;;;;;;;6.97;5.43;;;;;;;18.75;42.77;101397.44;4948150;28;119516;-66
2021/06/02 01:25:16;;;;;;;7.80;5.28;;;;;;;18.72;43.13;101390.44;4949775;28;124097;-66
2021/06/02 01:27:47;;;;;;;7.32;5.78;;;;;;;18.69;43.12;101393.38;4949482;28;124034;-65
2021/06/02 01:30:19;;;;;;;6.45;5.35;;;;;;;18.66;43.10;101396.25;4948386;28;120304;-65
2021/06/02 01:32:53;;;;;;;7.85;5.43;;;;;;;18.64;43.20;101395.50;4948656;28;119729;-66
2021/06/02 01:35:45;;;;;;;7.25;5.55;;;;;;;18.63;42.99;101396.50;4946111;28;124051;-65
2021/06/02 01:38:19;;;;;;;8.30;5.72;;;;;;;18.61;42.90;101395.72;4937370;28;123873;-65
2021/06/02 01:41:02;;;;;;;7.72;5.82;;;;;;;18.61;43.12;101395.72;4949822;28;119673;-64
2021/06/02 01:44:00;;;;;;;8.05;5.80;;;;;;;18.59;42.94;101397.66;4949824;28;118989;-65
2021/06/02 01:46:55;;;;;;;7.18;5.45;;;;;;;18.57;43.12;101389.72;4947453;28;124032;-64
2021/06/02 01:50:12;;;;;;;9.20;5.78;;;;;;;18.56;43.13;101396.03;4947466;28;124339;-65
2021/06/02 01:53:13;;;;;;;8.55;5.68;;;;;;;18.54;43.19;101389.94;4917152;28;119575;-64
2021/06/02 01:56:16;;;;;;;6.47;5.30;;;;;;;18.53;43.14;101392.72;4939700;28;119619;-64
2021/06/02 01:59:11;;;;;;;6.90;5.50;;;;;;;18.48;43.07;101388.53;4946252;28;123378;-65
2021/06/02 02:02:27;;;;;;;7.50;5.72;;;;;;;18.45;43.12;101396.78;4962918;28;123669;-66
2021/06/02 02:05:25;;;;;;;7.43;5.53;;;;;;;18.41;43.19;101389.06;4936866;28;118838;-65
2021/06/02 02:08:04;;;;;;;8.55;5.90;;;;;;;18.39;43.46;101386.50;4948824;28;118915;-65
2021/06/02 02:10:52;;;;;;;8.10;6.00;;;;;;;18.37;43.71;101393.78;4947104;28;124058;-65
2021/06/02 02:13:51;;;;;;;9.98;6.38;;;;;;;18.34;43.70;101388.63;4947624;28;122847;-65
2021/06/02 02:16:39;;;;;;;9.00;6.03;;;;;;;18.32;43.57;101393.25;4962554;28;119575;-65
2021/06/02 02:19:12;;;;;;;7.85;5.90;;;;;;;18.28;44.00;101391.75;4934745;28;119587;-65
2021/06/02 02:21:43;;;;;;;8.35;6.07;;;;;;;18.25;44.12;101384.78;4935931;28;124526;-65
2021/06/02 02:24:10;;;;;;;9.50;6.55;;;;;;;18.24;44.54;101385.72;4940168;28;124667;-65
2021/06/02 02:26:43;;;;;;;7.18;6.32;;;;;;;18.22;44.49;101378.75;4941024;28;120177;-65
2021/06/02 02:29:47;;;;;;;8.48;6.30;;;;;;;18.19;44.62;101384.31;4946338;28;120470;-65
2021/06/02 02:32:17;;;;;;;10.45;6.70;;;;;;;18.17;44.53;101391.63;4946134;28;124763;-65
2021/06/02 02:34:58;;;;;;;7.95;6.80;;;;;;;18.16;44.84;101390.75;4947715;28;124699;-65
2021/06/02 02:37:39;;;;;;;9.75;6.65;;;;;;;18.14;44.78;101386.44;4948466;28;120088;-66
2021/06/02 02:40:12;;;;;;;11.73;6.13;;;;;;;18.13;44.92;101388.28;4947880;28;119221;-66
2021/06/02 02:43:02;;;;;;;10.30;6.38;;;;;;;18.11;44.77;101392.03;4945726;28;124503;-67
2021/06/02 02:45:44;;;;;;;9.07;6.88;;;;;;;18.12;45.21;101377.66;4946894;28;123945;-65
2021/06/02 02:48:23;;;;;;;10.50;6.80;;;;;;;18.14;45.22;101386.44;4937908;28;119426;-65
2021/06/02 02:51:15;;;;;;;10.43;6.90;;;;;;;18.12;45.23;101378.53;4946633;28;119835;-65
2021/06/02 02:53:55;;;;;;;9.30;6.93;;;;;;;18.13;45.23;101385.59;4938518;28;124093;-66
2021/06/02 02:56:34;;;;;;;9.73;7.20;;;;;;;18.13;45.30;101395.47;4948500;28;124332;-66
2021/06/02 02:59:24;;;;;;;11.65;7.32;;;;;;;18.14;45.13;101386.44;4945789;28;119538;-66
2021/06/02 03:02:07;;;;;;;10.98;6.93;;;;;;;18.13;45.13;101390.13;4948617;28;96638;-67
2021/06/02 03:04:39;;;;;;;10.40;7.28;;;;;;;18.11;45.37;101392.03;4949426;28;124337;-66
2021/06/02 03:07:10;;;;;;;10.38;6.85;;;;;;;18.08;45.56;101393.09;4950408;28;124735;-67
2021/06/02 03:09:47;;;;;;;8.35;7.40;;;;;;;18.04;45.46;101395.13;4948033;28;119432;-67
2021/06/02 03:12:23;;;;;;;10.85;7.68;;;;;;;18.02;45.58;101396.19;4949949;28;119721;-67
2021/06/02 03:15:11;;;;;;;9.23;7.38;;;;;;;17.96;45.72;101389.44;4947959;28;124615;-66
2021/06/02 03:17:44;;;;;;;10.43;7.82;;;;;;;17.91;45.96;101391.56;4950345;28;124882;-66
2021/06/02 03:20:17;;;;;;;11.73;8.63;;;;;;;17.88;46.13;101389.09;4948441;28;120560;-66
2021/06/02 03:23:03;;;;;;;11.40;7.75;;;;;;;17.85;45.96;101386.59;4942660;28;121160;-66
2021/06/02 03:25:46;;;;;;;12.00;8.35;;;;;;;17.81;46.44;101387.75;4948621;28;123048;-66
2021/06/02 03:28:46;;;;;;;12.95;8.10;;;;;;;17.78;46.45;101390.63;4952120;28;123817;-66
2021/06/02 03:31:51;;;;;;;12.60;7.70;;;;;;;17.75;46.39;101390.84;4950355;28;119265;-65
2021/06/02 03:34:24;;;;;;;11.05;8.13;;;;;;;17.75;46.54;101396.22;4946330;28;119051;-65
2021/06/02 03:37:23;;;;;;;12.73;7.90;;;;;;;17.74;46.45;101394.47;4951217;28;124316;-65
2021/06/02 03:39:55;;;;;;;11.60;8.02;;;;;;;17.72;46.72;101397.25;4940310;28;124183;-65
2021/06/02 03:42:52;;;;;;;10.65;7.90;;;;;;;17.70;46.53;101400.03;4950357;28;118613;-65
2021/06/02 03:45:38;;;;;;;10.60;8.15;;;;;;;17.71;46.61;101404.44;4960834;28;118021;-65
2021/06/02 03:48:14;;;;;;;;;;;;;;;17.69;45.54;101398.31;4930724;28;123716;-65
2021/06/02 03:50:50;;;;;;;;;;;;;;;17.71;45.16;101385.69;4952272;28;125301;-65
2021/06/02 03:53:37;;;;;;;10.45;8.25;;;;;;;17.74;45.77;101378.41;4957683;28;119161;-65
2021/06/02 03:56:19;;;;;;;12.70;8.18;;;;;;;17.74;46.11;101384.59;4963872;28;119360;-65
2021/06/02 03:59:10;;;;;;;9.85;7.82;;;;;;;17.74;46.78;101389.13;4940490;28;124017;-65
2021/06/02 04:01:54;;;;;;;11.05;7.95;;;;;;;17.76;46.81;101384.50;4951395;28;123972;-65
2021/06/02 04:04:24;;;;;;;10.88;8.00;;;;;;;17.77;46.76;101388.91;4949482;28;119412;-65
2021/06/02 04:07:08;;;;;;;10.93;8.48;;;;;;;17.77;47.11;101378.22;4950811;28;119037;-65
2021/06/02 04:09:54;;;;;;;10.57;8.70;;;;;;;17.81;47.34;101379.72;4949240;28;124255;-65
2021/06/02 04:12:33;;;;;;;11.52;8.25;;;;;;;17.83;46.96;101380.47;4941818;28;124660;-65
2021/06/02 04:15:06;;;;;;;12.45;8.80;;;;;;;17.85;47.26;101381.25;4948573;28;121001;-65
2021/06/02 04:17:34;;;;;;;10.35;8.00;;;;;;;17.88;47.21;101381.06;4943466;28;119860;-65
2021/06/02 04:20:04;;;;;;;12.93;8.75;;;;;;;17.90;47.54;101379.13;4949992;28;124388;-65
2021/06/02 04:22:32;;;;;;;11.95;8.85;;;;;;;17.93;47.63;101378.06;4941780;28;123909;-65
2021/06/02 04:25:04;;;;;;;11.85;9.15;;;;;;;17.95;47.84;101377.00;4944055;28;120062;-65
2021/06/02 04:27:37;;;;;;;15.27;9.23;;;;;;;17.98;47.97;101384.81;4936092;28;118654;-65
2021/06/02 04:30:06;;;;;;;14.27;9.20;;;;;;;18.00;47.84;101385.56;4951134;28;124114;-65
2021/06/02 04:32:45;;;;;;;13.40;9.40;;;;;;;18.02;47.71;101375.59;4949295;28;123711;-65
2021/06/02 04:35:17;;;;;;;11.85;9.05;;;;;;;18.06;48.21;101378.94;4950601;28;118199;-65
2021/06/02 04:37:46;;;;;;;12.60;9.27;;;;;;;18.08;48.24;101377.00;4952589;28;119171;-65
2021/06/02 04:40:13;;;;;;;22.92;10.23;;;;;;;18.11;48.10;101370.59;4950031;28;123901;-65
2021/06/02 04:42:41;;;;;;;15.13;9.63;;;;;;;18.13;48.19;101374.03;4950431;28;123518;-65
2021/06/02 04:45:15;;;;;;;24.95;10.43;;;;;;;18.17;48.85;101372.84;4951736;28;119175;-65
2021/06/02 04:47:44;;;;;;;32.05;11.18;;;;;;;18.23;49.08;101369.75;4950229;28;119214;-65
2021/06/02 04:50:19;;;;;;;18.42;10.00;;;;;;;18.29;49.04;101377.38;4943904;28;123837;-65
2021/06/02 04:53:23;;;;;;;14.15;10.05;;;;;;;18.34;48.76;101372.53;4948638;28;124651;-65
2021/06/02 04:56:08;;;;;;;16.13;10.10;;;;;;;18.43;49.03;101365.69;4944265;28;119431;-65
2021/06/02 04:59:26;;;;;;;15.10;9.82;;;;;;;18.49;49.12;101376.81;4946645;28;119148;-65
2021/06/02 05:02:12;;;;;;;13.68;9.77;;;;;;;18.57;48.98;101372.75;4931190;28;122904;-65
2021/06/02 05:04:51;;;;;;;17.65;10.70;;;;;;;18.66;49.26;101377.47;4948837;28;124118;-65
2021/06/02 05:07:33;;;;;;;17.10;10.38;;;;;;;18.75;49.34;101378.66;4947736;28;121019;-65
2021/06/02 05:10:22;;;;;;;14.85;10.18;;;;;;;18.83;48.90;101379.84;4950967;28;119703;-65
2021/06/02 05:13:27;;;;;;;12.40;10.13;;;;;;;18.91;48.91;101370.38;4943481;28;124030;-65
2021/06/02 05:16:16;;;;;;;12.32;9.75;;;;;;;19.02;48.97;101378.53;4949953;28;123720;-65
2021/06/02 05:22:13;;;;;;;12.02;10.25;;;;;;;19.22;48.87;101386.00;4935833;28;118788;-65
2021/06/02 05:25:03;;;;;;;14.73;10.43;;;;;;;19.32;48.94;101385.31;4945353;28;124493;-66
2021/06/02 05:27:54;;;;;;;12.50;10.13;;;;;;;19.40;48.94;101390.97;4964049;28;124815;-66
2021/06/02 05:30:43;;;;;;;13.38;10.18;;;;;;;19.49;48.82;101390.31;4947531;28;119606;-66
2021/06/02 05:33:39;;;;;;;16.75;10.63;;;;;;;19.59;48.89;101399.41;4947861;28;119143;-66
2021/06/02 05:36:34;;;;;;;13.43;10.52;;;;;;;19.72;48.61;101395.78;4932719;28;122967;-65
2021/06/02 05:39:06;;;;;;;16.30;10.90;;;;;;;19.83;48.37;101390.50;4946746;28;124666;-66
2021/06/02 05:41:52;;;;;;;12.30;9.60;;;;;;;19.92;48.39;101389.81;4948609;28;118270;-68
2021/06/02 05:44:22;;;;;;;12.07;10.10;;;;;;;20.03;48.41;101397.06;4947066;28;119330;-66
2021/06/02 05:47:17;;;;;;;16.88;10.75;;;;;;;20.13;48.32;101397.22;4949278;28;124382;-65
2021/06/02 05:49:50;;;;;;;15.13;10.00;;;;;;;20.22;48.25;101391.97;4947282;28;123942;-66
2021/06/02 05:52:50;;;;;;;17.92;9.88;;;;;;;20.32;48.01;101397.50;4947650;28;119945;-66
2021/06/02 05:55:43;;;;;;;13.48;9.57;;;;;;;20.42;48.15;101393.13;4948883;28;119125;-65
2021/06/02 05:58:17;;;;;;;15.80;9.65;;;;;;;20.54;47.87;101390.47;4943960;28;124571;-66
2021/06/02 06:01:04;;;;;;;13.35;9.52;;;;;;;20.63;47.67;101389.78;4947520;28;124686;-66
2021/06/02 06:03:43;;;;;;;12.07;9.35;;;;;;;20.74;47.47;101387.09;4947959;28;119129;-67
2021/06/02 06:06:29;;;;;;;17.73;9.45;;;;;;;20.87;47.36;101386.09;4949692;28;120023;-66
2021/06/02 06:09:35;;;;;;;11.75;9.60;;;;;;;20.99;47.26;101385.13;4941847;28;124087;-67
2021/06/02 06:12:33;;;;;;;11.68;9.13;;;;;;;21.12;47.09;101385.84;4946192;28;124303;-67
2021/06/02 06:15:18;;;;;;;13.65;9.07;;;;;;;21.29;47.19;101391.69;4948948;28;118631;-66
2021/06/02 06:18:11;;;;;;;14.02;9.82;;;;;;;21.45;46.76;101386.78;4943927;28;119012;-66
2021/06/02 06:21:06;;;;;;;12.25;9.27;;;;;;;21.63;46.62;101388.94;4930246;28;123505;-66
2021/06/02 06:23:50;;;;;;;13.45;8.93;;;;;;;21.83;46.36;101396.22;4959068;28;124002;-66
2021/06/02 06:26:32;;;;;;;15.57;9.00;;;;;;;22.03;45.63;101396.38;4948209;28;119961;-66
2021/06/02 06:29:22;;;;;;;12.50;8.65;;;;;;;22.19;44.90;101391.41;4963654;28;118961;-67
2021/06/02 06:31:52;;;;;;;11.93;7.65;;;;;;;22.34;44.41;101390.09;4946794;28;124424;-67
2021/06/02 06:34:23;;;;;;;11.90;7.68;;;;;;;22.49;44.04;101390.63;4935740;28;123617;-67
2021/06/02 06:36:54;;;;;;;10.82;7.70;;;;;;;22.68;44.08;101386.31;4948458;28;119966;-67
2021/06/02 06:39:39;;;;;;;11.52;7.75;;;;;;;22.89;44.01;101388.97;4966377;28;121057;-67
2021/06/02 06:42:11;;;;;;;10.18;6.90;;;;;;;23.10;42.48;101387.06;4970701;23;124175;-68
2021/06/02 06:44:41;;;;;;;8.90;6.95;;;;;;;23.29;41.85;101385.41;4950654;28;123930;-69
2021/06/02 06:47:09;;;;;;;9.63;7.45;;;;;;;23.46;41.20;101382.03;4951325;28;119653;-70
2021/06/02 06:49:37;;;;;;;9.77;7.90;;;;;;;23.62;40.38;101386.03;4947457;28;119232;-70
2021/06/02 06:52:04;;;;;;;13.82;7.22;;;;;;;23.76;40.57;101382.06;4945278;28;124148;-70
2021/06/02 06:54:32;;;;;;;9.50;7.50;;;;;;;23.93;40.86;101377.81;4951430;28;124208;-69
2021/06/02 06:57:01;;;;;;;10.85;7.40;;;;;;;24.10;39.67;101374.38;4945437;28;120079;-70
2021/06/02 06:59:28;;;;;;;9.88;6.72;;;;;;;24.24;39.73;101382.06;4948792;28;119806;-69
2021/06/02 07:01:55;;;;;;;10.98;7.15;;;;;;;24.37;39.33;101376.31;4950924;28;124331;-69
2021/06/02 07:04:23;;;;;;;8.50;6.90;;;;;;;24.49;39.11;101372.44;4948750;28;124636;-70
2021/06/02 07:06:51;;;;;;;9.40;7.20;;;;;;;24.64;38.98;101377.44;4950665;28;119079;-70
2021/06/02 07:09:18;;;;;;;12.50;7.28;;;;;;;24.81;39.00;101378.50;4951735;28;119295;-70
2021/06/02 07:11:46;;;;;;;9.27;6.90;;;;;;;24.99;38.35;101382.09;4950234;28;124184;-70
2021/06/02 07:14:24;;;;;;;13.75;6.93;;;;;;;25.15;38.03;101376.03;4942855;28;123835;-70
2021/06/02 07:16:54;;;;;;;13.13;7.22;;;;;;;25.35;38.37;101374.06;4944672;28;117735;-70
2021/06/02 07:19:22;;;;;;;12.73;7.03;;;;;;;25.53;37.35;101374.09;4952178;28;119837;-70
2021/06/02 07:21:50;;;;;;;9.63;7.45;;;;;;;25.66;36.88;101368.28;4951688;28;123865;-70
2021/06/02 07:24:19;;;;;;;8.43;6.78;;;;;;;25.82;37.34;101373.88;4944931;28;124113;-70
2021/06/02 07:26:47;;;;;;;11.05;7.10;;;;;;;26.00;37.01;101376.59;4945125;28;119566;-70
2021/06/02 07:29:22;;;;;;;;;;;;;;;26.15;37.87;101368.75;4951442;28;118960;-70
2021/06/02 07:31:49;;;;;;;16.13;7.40;;;;;;;26.36;37.07;101370.25;4951744;28;125324;-70
2021/06/02 07:34:16;;;;;;;9.48;6.78;;;;;;;26.51;36.69;101363.19;4936129;28;124238;-70
2021/06/02 07:36:44;;;;;;;13.18;7.00;;;;;;;26.66;35.83;101362.63;4947284;28;118453;-70
2021/06/02 07:39:11;;;;;;;10.25;7.07;;;;;;;26.75;35.40;101369.81;4947938;28;118794;-70
2021/06/02 07:41:38;;;;;;;11.95;6.65;;;;;;;26.84;35.33;101368.81;4950886;28;124908;-70
2021/06/02 07:44:06;;;;;;;11.10;7.18;;;;;;;26.92;34.84;101371.59;4948961;28;124677;-70
2021/06/02 07:46:34;;;;;;;12.82;6.68;;;;;;;26.98;34.81;101370.94;4949818;28;120297;-70
2021/06/02 07:49:05;;;;;;;10.65;6.85;;;;;;;27.08;34.58;101375.38;4948911;28;119432;-70
2021/06/02 07:51:34;;;;;;;9.65;6.97;;;;;;;27.18;34.09;101376.09;4949535;28;124044;-70
2021/06/02 07:54:02;;;;;;;8.68;6.95;;;;;;;27.28;33.86;101365.97;4950394;28;123632;-70
2021/06/02 07:56:29;;;;;;;12.40;6.82;;;;;;;27.37;34.17;101364.97;4949540;28;119507;-70
2021/06/02 07:58:56;;;;;;;9.27;5.97;;;;;;;27.47;33.73;101363.97;4948609;28;119246;-70
2021/06/02 08:01:24;;;;;;;11.82;6.05;;;;;;;27.54;33.44;101365.00;4951576;28;124140;-70
2021/06/02 08:03:51;;;;;;;9.43;5.88;;;;;;;27.60;33.00;101368.91;4941637;28;123812;-70
2021/06/02 08:06:18;;;;;;;9.35;6.07;;;;;;;27.67;33.02;101376.25;4949944;28;119326;-70
2021/06/02 08:08:45;;;;;;;9.18;5.50;;;;;;;27.76;33.28;101368.91;4949800;28;119366;-70
2021/06/02 08:11:12;;;;;;;8.23;5.53;;;;;;;27.88;33.37;101373.03;4949737;28;123154;-70
2021/06/02 08:13:39;;;;;;;7.75;5.72;;;;;;;28.00;32.52;101370.81;4950905;28;124483;-70
2021/06/02 08:16:06;;;;;;;8.13;6.07;;;;;;;28.09;32.36;101375.25;4949039;28;119739;-70
2021/06/02 08:18:34;;;;;;;8.77;5.57;;;;;;;28.15;32.72;101374.56;4948391;28;118971;-70
2021/06/02 08:21:01;;;;;;;6.82;5.20;;;;;;;28.22;32.59;101371.13;4950099;28;124280;-70
2021/06/02 08:23:28;;;;;;;11.98;6.18;;;;;;;28.26;31.66;101376.09;4954696;28;122573;-71
2021/06/02 08:25:55;;;;;;;10.20;5.88;;;;;;;28.27;31.17;101375.03;4950990;28;119141;-71
2021/06/02 08:28:24;;;;;;;9.63;5.85;;;;;;;28.25;31.43;101378.97;4948835;28;119127;-71
2021/06/02 08:30:51;;;;;;;9.10;5.75;;;;;;;28.23;31.66;101381.03;4950213;28;124075;-71
2021/06/02 08:33:18;;;;;;;9.07;5.93;;;;;;;28.25;31.56;101385.25;4949616;28;123806;-71
2021/06/02 08:35:45;;;;;;;7.75;5.10;;;;;;;28.31;31.27;101387.31;4948243;28;120983;-71
2021/06/02 08:38:12;;;;;;;7.30;4.82;;;;;;;28.37;30.54;101387.63;4951100;28;120255;-71
2021/06/02 08:40:39;;;;;;;7.07;4.43;;;;;;;28.39;30.70;101378.28;4950344;28;124453;-71
2021/06/02 08:43:07;;;;;;;7.25;4.80;;;;;;;28.43;30.90;101376.91;4951399;28;124033;-71
2021/06/02 08:45:34;;;;;;;8.88;4.72;;;;;;;28.54;30.48;101376.56;4948843;28;119163;-71
2021/06/02 08:48:01;;;;;;;6.68;4.57;;;;;;;28.62;30.06;101369.41;4949285;28;118795;-71
2021/06/02 08:50:29;;;;;;;6.57;3.92;;;;;;;28.70;30.46;101377.53;4948642;28;124424;-71
2021/06/02 08:52:59;;;;;;;4.70;3.45;;;;;;;28.77;30.05;101373.09;4949968;28;123716;-71
2021/06/02 08:55:27;;;;;;;7.72;4.13;;;;;;;28.85;29.58;101381.22;4949091;28;119985;-71
2021/06/02 08:57:56;;;;;;;6.63;3.45;;;;;;;28.93;29.39;101383.94;4950687;28;119221;-71
2021/06/02 09:00:26;;;;;;;5.38;3.55;;;;;;;29.01;29.45;101384.91;4947070;28;123876;-71
2021/06/02 09:02:54;;;;;;;5.28;3.40;;;;;;;29.07;28.38;101381.50;4948559;28;124187;-71
2021/06/02 09:05:23;;;;;;;4.65;3.65;;;;;;;29.08;28.50;101375.00;4946648;28;118391;-71
2021/06/02 09:07:55;;;;;;;8.40;3.70;;;;;;;29.11;28.52;101377.38;4946707;28;118832;-71
2021/06/02 09:10:25;;;;;;;6.35;3.58;;;;;;;29.18;27.96;101370.22;4947987;28;125121;-71
2021/06/02 09:13:01;;;;;;;6.95;3.60;;;;;;;29.21;28.20;101367.13;4943000;28;124017;-71
2021/06/02 09:15:33;;;;;;;5.13;3.50;;;;;;;29.27;27.92;101369.16;4949402;28;118348;-71
2021/06/02 09:18:04;;;;;;;7.22;3.60;;;;;;;29.35;27.69;101365.50;4951079;28;119268;-71
2021/06/02 09:20:44;;;;;;;5.32;3.10;;;;;;;29.40;27.58;101374.00;4948267;28;124437;-71
2021/06/02 09:23:32;;;;;;;5.22;2.63;;;;;;;29.48;27.94;101370.38;4935455;28;123951;-71
2021/06/02 09:26:17;;;;;;;3.63;2.80;;;;;;;29.59;27.88;101367.25;4933770;28;120412;-71
2021/06/02 09:28:59;;;;;;;6.60;2.95;;;;;;;29.73;27.52;101370.19;4949439;28;119918;-71
2021/06/02 09:31:32;;;;;;;6.85;3.47;;;;;;;29.81;26.78;101361.97;4948161;28;123788;-71
2021/06/02 09:34:14;;;;;;;6.22;2.97;;;;;;;29.87;26.92;101369.41;4963401;28;123898;-71
2021/06/02 09:36:43;;;;;;;4.20;2.60;;;;;;;29.92;27.14;101367.00;4948759;28;118819;-71
2021/06/02 09:39:15;;;;;;;4.75;2.97;;;;;;;30.01;27.34;101365.88;4949261;28;119318;-70
2021/06/02 09:41:45;;;;;;;4.88;3.03;;;;;;;30.13;26.69;101368.19;4950188;28;124045;-71
2021/06/02 09:44:13;;;;;;;5.50;2.90;;;;;;;30.22;26.57;101367.91;4947502;28;124215;-71
2021/06/02 09:47:04;;;;;;;5.20;2.72;;;;;;;30.30;26.94;101363.41;4965503;28;119101;-71
2021/06/02 09:49:49;;;;;;;6.60;3.35;;;;;;;30.38;26.45;101361.44;4962162;28;119178;-71
2021/06/02 09:52:17;;;;;;;5.35;3.28;;;;;;;30.47;26.79;101374.00;4941838;28;124162;-71
2021/06/02 09:54:46;;;;;;;4.40;3.22;;;;;;;30.53;25.79;101357.88;4947297;28;124511;-71
2021/06/02 09:57:14;;;;;;;4.30;2.67;;;;;;;30.54;25.85;101365.06;4947841;28;119302;-71
2021/06/02 09:59:57;;;;;;;4.72;2.70;;;;;;;30.57;26.45;101361.94;4948080;28;119205;-71
2021/06/02 10:02:26;;;;;;;6.47;3.00;;;;;;;30.62;25.42;101354.00;4929381;28;124210;-70
2021/06/02 10:05:02;;;;;;;4.43;2.60;;;;;;;30.63;25.42;101348.38;4941389;28;123841;-71
2021/06/02 10:07:30;;;;;;;3.78;2.55;;;;;;;30.68;25.31;101345.03;4942861;28;119873;-71
2021/06/02 10:10:20;;;;;;;5.80;3.00;;;;;;;30.73;26.42;101348.06;4948177;28;118975;-71
2021/06/02 10:12:57;;;;;;;4.97;2.55;;;;;;;30.84;25.05;101360.41;4947523;28;124229;-71
2021/06/02 10:15:31;;;;;;;4.53;2.40;;;;;;;30.89;23.70;101357.09;4952492;28;123391;-71
2021/06/02 10:17:59;;;;;;;8.27;2.80;;;;;;;30.87;24.24;101354.56;4952964;28;120218;-71
2021/06/02 10:20:33;;;;;;;2.90;2.38;;;;;;;30.89;24.18;101351.63;4938735;28;119435;-71
2021/06/02 10:23:02;;;;;;;5.60;2.20;;;;;;;30.92;24.01;101351.28;4952372;28;124367;-70
2021/06/02 10:25:29;;;;;;;4.95;2.17;;;;;;;30.94;23.52;101354.69;4950577;28;123982;-70
2021/06/02 10:27:57;;;;;;;6.15;2.35;;;;;;;30.95;23.36;101357.22;4953148;28;120061;-70
2021/06/02 10:30:26;;;;;;;4.35;2.25;;;;;;;30.96;24.26;101349.88;4951733;28;119765;-70
2021/06/02 10:32:56;;;;;;;5.20;2.17;;;;;;;31.01;23.71;101355.63;4952763;28;124273;-70
2021/06/02 10:35:23;;;;;;;4.63;2.38;;;;;;;31.05;23.96;101351.44;4952452;28;122817;-70
2021/06/02 10:37:54;;;;;;;3.47;2.28;;;;;;;31.07;23.48;101354.84;4952606;28;119125;-70
2021/06/02 10:40:25;;;;;;;3.08;2.15;;;;;;;31.11;23.74;101350.69;4952203;28;117963;-70
2021/06/02 10:43:11;;;;;;;3.33;2.25;;;;;;;31.16;24.68;101356.44;4950025;28;124009;-70
2021/06/02 10:46:01;;;;;;;3.50;2.17;;;;;;;31.21;24.12;101345.75;4952782;28;124266;-71
2021/06/02 10:48:44;;;;;;;5.07;2.50;;;;;;;31.27;24.01;101354.22;4942609;28;119067;-71
2021/06/02 10:51:30;;;;;;;5.93;2.67;;;;;;;31.33;23.24;101353.47;4950716;28;118937;-70
2021/06/02 10:54:11;;;;;;;2.80;2.13;;;;;;;31.29;23.31;101346.66;4938534;28;124054;-70
2021/06/02 10:56:59;;;;;;;4.07;2.40;;;;;;;31.27;23.26;101348.75;4945847;28;123863;-70
2021/06/02 10:59:33;;;;;;;6.30;2.22;;;;;;;31.33;23.09;101348.00;4953288;28;119618;-70
2021/06/02 11:02:12;;;;;;;3.53;2.42;;;;;;;31.40;23.52;101343.41;4952549;28;118981;-70
2021/06/02 11:04:42;;;;;;;4.18;2.53;;;;;;;31.47;24.39;101343.53;4950517;28;124206;-70
2021/06/02 11:07:20;;;;;;;3.45;2.75;;;;;;;31.46;23.08;101334.44;4951900;28;125116;-70
2021/06/02 11:09:51;;;;;;;4.25;2.45;;;;;;;31.44;22.70;101340.09;4950831;28;120313;-71
2021/06/02 11:12:18;;;;;;;4.88;2.55;;;;;;;31.43;23.06;101332.91;4950439;28;119993;-70
2021/06/02 11:14:45;;;;;;;5.00;2.30;;;;;;;31.43;23.07;101326.59;4951406;28;123141;-70
2021/06/02 11:17:14;;;;;;;4.32;2.40;;;;;;;31.47;22.71;101330.66;4951473;28;124581;-70
2021/06/02 11:19:56;;;;;;;3.40;2.15;;;;;;;31.52;23.49;101325.47;4950079;28;119830;-70
2021/06/02 11:22:26;;;;;;;4.30;2.08;;;;;;;31.60;23.31;101332.69;4944226;28;119368;-70
2021/06/02 11:24:55;;;;;;;4.10;2.20;;;;;;;31.67;22.50;101327.28;4931363;28;122960;-70
2021/06/02 11:27:22;;;;;;;4.22;2.25;;;;;;;31.72;22.52;101330.25;4941667;28;123486;-71
2021/06/02 11:29:52;;;;;;;5.63;2.58;;;;;;;31.79;22.67;101333.91;4949996;28;119781;-71
2021/06/02 11:32:20;;;;;;;5.85;2.33;;;;;;;31.82;21.31;101326.16;4949605;28;118977;-70
2021/06/02 11:34:53;;;;;;;5.35;2.40;;;;;;;31.82;21.43;101326.16;4949534;28;124448;-71
2021/06/02 11:37:23;;;;;;;5.70;2.40;;;;;;;31.80;21.18;101332.88;4950232;28;124031;-72
2021/06/02 11:39:54;;;;;;;3.50;2.17;;;;;;;31.79;21.51;101320.22;4952125;28;119643;-70
2021/06/02 11:42:31;;;;;;;7.18;2.35;;;;;;;31.83;21.62;101327.00;4951810;28;118708;-71
2021/06/02 11:45:00;;;;;;;4.78;2.30;;;;;;;31.86;21.34;101329.34;4960232;28;123627;-70
2021/06/02 11:47:28;;;;;;;3.13;2.17;;;;;;;31.87;21.69;101336.50;4949377;28;123974;-70
2021/06/02 11:50:06;;;;;;;6.28;2.17;;;;;;;31.90;20.97;101327.91;4949834;28;119198;-69
2021/06/02 11:52:34;;;;;;;5.30;2.20;;;;;;;31.97;22.07;101317.00;4943897;28;119615;-70
2021/06/02 11:55:06;;;;;;;3.15;2.20;;;;;;;32.03;21.78;101326.34;4951786;28;124100;-71
2021/06/02 11:57:39;;;;;;;4.47;2.53;;;;;;;32.11;21.67;101323.44;4950597;28;124686;-71